Time;durP1;ratioP1;P1;durP2;ratioP2;P2;SDS_P1;SDS_P2;PMS_P1;PMS_P2;Temp;Humidity;BMP_temperature;BMP_pressure;BME280_temperature;BME280_humidity;BME280_pressure;Samples;Min_cycle;Max_cycle;Signal;HPM_P1;HPM_P2
2022/07/26 00:01:16;;;;;;;11.15;2.45;;;;;;;16.69;100.00;101403.13;5246820;28;20028;-69
2022/07/26 00:03:48;;;;;;;11.80;2.85;;;;;;;16.65;100.00;101402.66;5246632;28;20047;-69
2022/07/26 00:06:19;;;;;;;10.40;2.10;;;;;;;16.65;100.00;101399.13;5245919;28;20105;-69
2022/07/26 00:08:50;;;;;;;11.35;2.83;;;;;;;16.63;100.00;101401.19;5257651;28;20055;-68
2022/07/26 00:11:21;;;;;;;8.48;2.08;;;;;;;16.61;100.00;101408.66;5248238;28;20104;-69
2022/07/26 00:13:52;;;;;;;13.02;2.25;;;;;;;16.58;100.00;101418.03;5246673;28;20036;-69
2022/07/26 00:16:23;;;;;;;10.55;2.15;;;;;;;16.56;100.00;101415.50;5245754;28;20032;-68
2022/07/26 00:18:53;;;;;;;10.18;2.88;;;;;;;16.55;100.00;101416.53;5259851;28;20024;-68
2022/07/26 00:21:24;;;;;;;11.63;2.85;;;;;;;16.52;100.00;101419.63;5246493;28;20025;-69
2022/07/26 00:23:54;;;;;;;13.85;2.67;;;;;;;16.49;100.00;101421.88;5246985;28;20020;-69
2022/07/26 00:26:25;;;;;;;10.13;1.92;;;;;;;16.44;100.00;101419.75;5258905;28;20013;-69
2022/07/26 00:28:55;;;;;;;11.30;2.03;;;;;;;16.45;100.00;101412.44;5247400;28;20494;-69
2022/07/26 00:31:26;;;;;;;12.35;2.28;;;;;;;16.45;100.00;101426.84;5267352;28;20027;-69
2022/07/26 00:33:56;;;;;;;15.77;2.95;;;;;;;16.46;100.00;101424.97;5263708;28;20024;-68
2022/07/26 00:36:28;;;;;;;16.23;2.85;;;;;;;16.50;100.00;101423.56;5245559;28;20020;-69
2022/07/26 00:38:58;;;;;;;10.70;2.83;;;;;;;16.53;100.00;101423.19;5259166;28;20025;-68
2022/07/26 00:41:29;;;;;;;10.10;1.98;;;;;;;16.54;100.00;101420.28;5245644;28;20406;-69
2022/07/26 00:44:00;;;;;;;17.13;3.17;;;;;;;16.56;100.00;101422.78;5246244;28;20086;-68
2022/07/26 00:46:30;;;;;;;16.95;3.42;;;;;;;16.58;100.00;101418.88;5245438;28;20066;-68
2022/07/26 00:49:01;;;;;;;17.75;2.63;;;;;;;16.61;100.00;101417.63;5245816;28;20486;-69
2022/07/26 00:51:32;;;;;;;14.70;3.15;;;;;;;16.65;100.00;101427.06;5260647;28;20032;-68
2022/07/26 00:54:04;;;;;;;12.65;2.50;;;;;;;16.72;100.00;101419.88;5258165;28;20082;-69
2022/07/26 00:56:35;;;;;;;16.50;2.58;;;;;;;16.73;100.00;101412.59;5247699;28;20375;-69
2022/07/26 00:59:05;;;;;;;14.82;2.97;;;;;;;16.77;100.00;101416.59;5257075;28;20042;-69
2022/07/26 01:01:36;;;;;;;15.57;2.92;;;;;;;16.80;100.00;101411.59;5262703;28;20493;-69
2022/07/26 01:04:07;;;;;;;10.57;2.45;;;;;;;16.81;100.00;101418.69;5241678;28;20033;-69
2022/07/26 01:06:37;;;;;;;16.52;3.15;;;;;;;16.88;100.00;101421.50;5264097;28;20477;-69
2022/07/26 01:09:09;;;;;;;19.25;2.85;;;;;;;16.85;100.00;101421.88;5252537;28;20032;-69
2022/07/26 01:11:40;;;;;;;20.85;3.35;;;;;;;16.87;100.00;101424.38;5259116;28;20677;-69
2022/07/26 01:14:10;;;;;;;14.50;2.83;;;;;;;16.88;100.00;101423.38;5258117;28;20043;-69
2022/07/26 01:16:42;;;;;;;12.23;3.03;;;;;;;16.89;100.00;101408.78;5253742;28;20016;-69
2022/07/26 01:19:13;;;;;;;15.40;2.50;;;;;;;16.89;100.00;101415.03;5252521;28;20496;-69
2022/07/26 01:21:44;;;;;;;14.02;2.72;;;;;;;16.93;100.00;101404.66;5247051;28;20028;-69
2022/07/26 01:24:15;;;;;;;13.20;2.53;;;;;;;16.93;100.00;101413.63;5248451;28;20089;-69
2022/07/26 01:26:45;;;;;;;14.18;3.25;;;;;;;16.92;100.00;101405.66;5255026;28;20028;-69
2022/07/26 01:29:16;;;;;;;15.65;3.13;;;;;;;16.94;100.00;101409.03;5263850;28;20119;-69
2022/07/26 01:31:47;;;;;;;19.35;3.05;;;;;;;16.96;100.00;101406.97;5266369;28;20111;-69
2022/07/26 01:34:18;;;;;;;28.20;4.00;;;;;;;16.97;100.00;101414.06;5245809;28;20028;-69
2022/07/26 01:36:49;;;;;;;16.83;3.97;;;;;;;16.99;100.00;101410.13;5258610;28;20031;-69
2022/07/26 01:39:21;;;;;;;18.10;3.40;;;;;;;16.99;100.00;101410.13;5244924;28;20073;-69
2022/07/26 01:41:53;;;;;;;17.08;3.35;;;;;;;17.01;100.00;101401.78;5245210;28;20056;-69
2022/07/26 01:44:24;;;;;;;12.38;3.33;;;;;;;17.02;100.00;101408.91;5244485;28;20021;-69
2022/07/26 01:46:54;;;;;;;15.57;3.10;;;;;;;17.04;100.00;101407.66;5257536;28;20028;-69
2022/07/26 01:49:40;;;;;;;17.77;2.90;;;;;;;17.06;100.00;101410.19;5257594;28;20059;-69
2022/07/26 01:52:17;;;;;;;16.88;4.07;;;;;;;17.03;100.00;101411.41;5244745;28;20566;-69
2022/07/26 01:54:58;;;;;;;18.65;3.58;;;;;;;17.03;100.00;101416.84;5258063;28;20166;-69
2022/07/26 01:57:29;;;;;;;20.40;3.45;;;;;;;17.07;100.00;101420.84;5254474;28;20115;-69
2022/07/26 01:59:59;;;;;;;17.88;3.50;;;;;;;17.05;100.00;101419.34;5248740;28;20393;-69
2022/07/26 02:02:30;;;;;;;18.25;3.83;;;;;;;17.10;100.00;101416.88;5255595;28;20031;-69
2022/07/26 02:05:01;;;;;;;14.70;2.85;;;;;;;17.09;100.00;101420.63;5237965;28;20028;-69
2022/07/26 02:07:38;;;;;;;12.63;3.08;;;;;;;17.08;100.00;101427.09;5252055;28;20014;-68
2022/07/26 02:10:10;;;;;;;16.67;3.13;;;;;;;17.09;100.00;101420.63;5244919;28;20036;-69
2022/07/26 02:12:41;;;;;;;20.55;3.95;;;;;;;17.09;100.00;101423.34;5244583;28;20521;-70
2022/07/26 02:15:13;;;;;;;12.23;3.40;;;;;;;17.11;100.00;101429.41;5243894;28;20032;-69
2022/07/26 02:17:43;;;;;;;13.48;3.22;;;;;;;17.09;100.00;101428.78;5261989;28;20047;-69
2022/07/26 02:20:15;;;;;;;16.42;3.05;;;;;;;17.05;100.00;101422.06;5258700;28;20498;-69
2022/07/26 02:22:46;;;;;;;14.77;2.83;;;;;;;17.03;100.00;101424.13;5250053;28;20096;-69
2022/07/26 02:25:16;;;;;;;20.35;4.07;;;;;;;17.04;100.00;101429.34;5265041;28;20103;-69
2022/07/26 02:27:47;;;;;;;22.48;3.47;;;;;;;17.03;100.00;101430.41;5258608;28;20024;-69
2022/07/26 02:30:18;;;;;;;14.10;2.92;;;;;;;17.04;100.00;101428.53;5244545;28;20061;-69
2022/07/26 02:32:49;;;;;;;19.75;3.67;;;;;;;17.05;100.00;101430.19;5265537;28;20036;-70
2022/07/26 02:35:19;;;;;;;17.88;3.70;;;;;;;17.03;100.00;101433.09;5268118;28;20026;-69
2022/07/26 02:37:50;;;;;;;19.05;4.05;;;;;;;17.02;100.00;101436.84;5268038;28;20028;-69
2022/07/26 02:40:21;;;;;;;16.23;2.97;;;;;;;17.00;100.00;101446.19;5252335;28;20398;-69
2022/07/26 02:42:51;;;;;;;18.42;3.10;;;;;;;16.97;100.00;101438.47;5248483;28;20482;-69
2022/07/26 02:45:22;;;;;;;25.38;3.95;;;;;;;16.95;100.00;101437.81;5251943;28;20027;-69
2022/07/26 02:47:54;;;;;;;13.45;3.38;;;;;;;16.90;100.00;101432.97;5268904;28;20046;-69
2022/07/26 02:50:27;;;;;;;17.38;3.92;;;;;;;16.91;100.00;101441.94;5249532;28;20027;-69
2022/07/26 02:52:57;;;;;;;21.25;3.55;;;;;;;16.92;100.00;101443.59;5248295;28;20028;-69
2022/07/26 02:55:28;;;;;;;22.08;3.83;;;;;;;16.92;100.00;101446.31;5253692;28;20539;-69
2022/07/26 02:57:58;;;;;;;16.52;3.72;;;;;;;16.94;100.00;101441.56;5247992;28;20028;-69
2022/07/26 03:00:29;;;;;;;19.15;3.75;;;;;;;16.93;100.00;101439.88;5248080;28;20381;-69
2022/07/26 03:02:59;;;;;;;21.73;3.97;;;;;;;16.95;100.00;101441.34;5257381;28;20021;-69
2022/07/26 03:05:30;;;;;;;19.02;4.63;;;;;;;16.94;100.00;101455.09;5236770;28;20551;-69
2022/07/26 03:08:00;;;;;;;18.63;4.32;;;;;;;16.94;100.00;101455.09;5265436;28;20318;-69
2022/07/26 03:10:31;;;;;;;27.02;4.70;;;;;;;16.94;100.00;101455.09;5257587;28;20070;-69
2022/07/26 03:13:02;;;;;;;15.48;2.85;;;;;;;16.93;100.00;101451.56;5261248;28;20025;-70
2022/07/26 03:15:32;;;;;;;14.45;3.90;;;;;;;16.93;100.00;101458.84;5259593;28;20069;-69
2022/07/26 03:18:03;;;;;;;18.98;3.58;;;;;;;16.93;100.00;101462.41;5262119;28;20033;-69
2022/07/26 03:20:33;;;;;;;26.45;4.18;;;;;;;16.97;100.00;101465.56;5247971;28;20020;-69
2022/07/26 03:23:04;;;;;;;14.85;3.80;;;;;;;16.96;100.00;101455.75;5260945;28;20028;-68
2022/07/26 03:25:34;;;;;;;17.80;3.80;;;;;;;16.96;100.00;101455.75;5248798;28;20024;-69
2022/07/26 03:28:05;;;;;;;17.58;3.63;;;;;;;16.96;100.00;101453.03;5268257;28;20039;-69
2022/07/26 03:30:35;;;;;;;17.30;4.25;;;;;;;16.95;100.00;101451.34;5268293;28;20504;-69
2022/07/26 03:33:06;;;;;;;21.10;4.03;;;;;;;16.95;100.00;101454.91;5258388;28;20029;-69
2022/07/26 03:35:36;;;;;;;16.35;3.70;;;;;;;16.97;100.00;101457.44;5264466;28;20032;-69
2022/07/26 03:38:07;;;;;;;24.25;3.78;;;;;;;16.97;100.00;101465.56;5268160;28;20074;-69
2022/07/26 03:40:37;;;;;;;24.05;3.92;;;;;;;16.95;100.00;101467.63;5262452;28;20066;-69
2022/07/26 03:43:08;;;;;;;19.83;4.75;;;;;;;16.92;100.00;101476.13;5259938;28;20453;-69
2022/07/26 03:45:38;;;;;;;26.25;4.75;;;;;;;16.91;100.00;101469.03;5246785;28;20029;-69
2022/07/26 03:48:09;;;;;;;13.68;3.60;;;;;;;16.89;100.00;101468.41;5247676;28;20024;-69
2022/07/26 03:50:40;;;;;;;17.75;4.28;;;;;;;16.92;100.00;101473.41;5268125;28;20019;-69
2022/07/26 03:53:10;;;;;;;18.80;3.85;;;;;;;16.90;100.00;101476.31;5254368;28;20032;-69
2022/07/26 03:58:30;;;;;;;21.17;4.10;;;;;;;16.89;100.00;101481.94;5265621;28;20024;-69
2022/07/26 04:01:00;;;;;;;22.02;4.03;;;;;;;16.88;100.00;101472.97;5268037;28;20107;-69
2022/07/26 04:03:31;;;;;;;19.90;4.35;;;;;;;16.89;100.00;101484.66;5240077;28;20041;-69
2022/07/26 04:06:01;;;;;;;19.42;4.20;;;;;;;16.88;100.00;101477.56;5239779;28;20027;-69
2022/07/26 04:08:32;;;;;;;22.98;4.25;;;;;;;16.89;100.00;101490.09;5254843;28;20111;-69
2022/07/26 04:11:02;;;;;;;19.52;4.13;;;;;;;16.84;100.00;101482.53;5265416;28;20035;-69
2022/07/26 04:13:34;;;;;;;23.30;4.50;;;;;;;16.84;100.00;101485.22;5256592;28;20117;-69
2022/07/26 04:16:05;;;;;;;20.58;5.68;;;;;;;16.82;100.00;101490.84;5253078;28;20532;-69
2022/07/26 04:18:36;;;;;;;21.55;3.22;;;;;;;16.83;100.00;101497.09;5267418;28;20078;-69
2022/07/26 04:21:07;;;;;;;22.83;3.47;;;;;;;16.82;100.00;101495.44;5248873;28;20216;-69
2022/07/26 04:23:37;;;;;;;16.38;4.30;;;;;;;16.81;100.00;101494.56;5258945;28;20107;-69
2022/07/26 04:26:08;;;;;;;16.17;4.03;;;;;;;16.85;100.00;101503.16;5246761;28;20032;-69
2022/07/26 04:28:40;;;;;;;21.27;3.92;;;;;;;16.88;100.00;101504.66;5259866;28;20027;-69
2022/07/26 04:31:10;;;;;;;22.00;4.20;;;;;;;16.88;100.00;101501.97;5240236;28;20024;-69
2022/07/26 04:33:41;;;;;;;20.98;4.20;;;;;;;16.90;100.00;101502.59;5252012;28;20031;-69
2022/07/26 04:36:11;;;;;;;19.33;3.85;;;;;;;16.92;100.00;101512.22;5245495;28;20462;-69
2022/07/26 04:38:42;;;;;;;14.40;3.60;;;;;;;16.96;100.00;101512.66;5261984;28;20401;-69
2022/07/26 04:41:13;;;;;;;19.02;4.57;;;;;;;16.98;100.00;101510.63;5267040;28;20034;-69
2022/07/26 04:43:43;;;;;;;26.77;4.32;;;;;;;17.02;100.00;101511.91;5262975;28;20028;-69
2022/07/26 04:46:14;;;;;;;23.55;4.88;;;;;;;17.04;100.00;101509.84;5257048;28;20024;-69
2022/07/26 04:48:44;;;;;;;23.30;4.03;;;;;;;17.09;100.00;101512.81;5247385;28;20031;-69
2022/07/26 04:51:15;;;;;;;31.17;4.80;;;;;;;17.11;100.00;101513.44;5258210;28;20035;-69
2022/07/26 04:53:45;;;;;;;24.23;3.88;;;;;;;17.13;100.00;101518.69;5260372;28;20434;-69
2022/07/26 04:56:16;;;;;;;20.13;4.70;;;;;;;17.15;100.00;101513.91;5245368;28;20032;-69
2022/07/26 04:58:46;;;;;;;24.13;4.90;;;;;;;17.19;100.00;101516.03;5266300;28;20101;-69
2022/07/26 05:01:17;;;;;;;25.88;4.65;;;;;;;17.26;100.00;101516.94;5252410;28;20031;-69
2022/07/26 05:03:47;;;;;;;29.50;4.88;;;;;;;17.29;100.00;101513.00;5235586;28;20021;-69
2022/07/26 05:06:18;;;;;;;20.52;4.68;;;;;;;17.29;100.00;101521.97;5244068;28;20046;-68
2022/07/26 05:08:48;;;;;;;24.10;4.82;;;;;;;17.34;100.00;101518.69;5266278;28;20028;-68
2022/07/26 05:11:19;;;;;;;21.67;4.15;;;;;;;17.38;100.00;101525.41;5252679;28;20028;-68
2022/07/26 05:13:49;;;;;;;17.90;4.60;;;;;;;17.42;100.00;101523.97;5266237;28;20072;-69
2022/07/26 05:16:20;;;;;;;22.55;5.40;;;;;;;17.48;100.00;101527.78;5251641;28;20097;-69
2022/07/26 05:19:06;;;;;;;28.13;5.18;;;;;;;17.55;100.00;101523.25;5264755;28;20134;-69
2022/07/26 05:21:36;;;;;;;20.65;5.05;;;;;;;17.57;100.00;101521.16;5253411;28;20496;-69
2022/07/26 05:24:07;;;;;;;15.27;4.40;;;;;;;17.60;100.00;101520.78;5251854;28;20036;-69
2022/07/26 05:26:38;;;;;;;18.25;4.65;;;;;;;17.62;100.00;101521.44;5256529;28;20478;-69
2022/07/26 05:29:08;;;;;;;24.13;4.20;;;;;;;17.61;100.00;101527.88;5257259;28;20053;-69
2022/07/26 05:31:39;;;;;;;21.70;3.97;;;;;;;17.67;100.00;101535.25;5257168;28;20454;-69
2022/07/26 05:34:10;;;;;;;16.15;3.80;;;;;;;17.66;100.00;101530.00;5246645;28;20028;-69
2022/07/26 05:36:40;;;;;;;12.52;3.28;;;;;;;17.68;100.00;101527.97;5257297;28;20115;-69
2022/07/26 05:39:11;;;;;;;14.23;3.70;;;;;;;17.66;100.00;101532.72;5250709;28;20477;-69
2022/07/26 05:41:41;;;;;;;22.27;4.25;;;;;;;17.60;100.00;101532.47;5252233;28;20040;-69
2022/07/26 05:44:12;;;;;;;15.10;4.25;;;;;;;17.57;100.00;101534.72;5264817;28;20024;-68
2022/07/26 05:46:42;;;;;;;20.48;4.93;;;;;;;17.52;100.00;101542.63;5263403;28;20026;-69
2022/07/26 05:49:12;;;;;;;14.00;4.68;;;;;;;17.48;100.00;101542.19;5244792;28;20030;-69
2022/07/26 05:51:43;;;;;;;22.33;4.90;;;;;;;17.49;100.00;101541.16;5260488;28;20036;-69
2022/07/26 05:54:13;;;;;;;15.95;4.18;;;;;;;17.58;100.00;101544.56;5255104;28;20028;-69
2022/07/26 05:56:44;;;;;;;11.98;3.72;;;;;;;17.75;100.00;101545.16;5248181;28;20026;-69
2022/07/26 05:59:14;;;;;;;20.88;5.07;;;;;;;17.86;100.00;101555.47;5254517;28;20483;-69
2022/07/26 06:01:45;;;;;;;18.00;4.85;;;;;;;18.09;100.00;101550.63;5263404;28;20413;-69
2022/07/26 06:04:16;;;;;;;19.00;4.72;;;;;;;18.55;100.00;101554.66;5237724;28;20375;-69
2022/07/26 06:06:46;;;;;;;12.02;3.78;;;;;;;19.12;100.00;101553.41;5252479;28;20418;-69
2022/07/26 06:09:17;;;;;;;20.92;4.35;;;;;;;19.84;100.00;101551.88;5252144;28;20033;-71
2022/07/26 06:11:47;;;;;;;16.90;4.10;;;;;;;20.15;100.00;101548.47;5249337;28;20173;-71
2022/07/26 06:14:18;;;;;;;16.52;4.03;;;;;;;20.10;100.00;101553.72;5247949;28;20028;-71
2022/07/26 06:16:49;;;;;;;17.67;4.60;;;;;;;20.11;100.00;101564.38;5258235;28;20050;-69
2022/07/26 06:19:20;;;;;;;19.45;4.28;;;;;;;20.13;100.00;101566.88;5266018;28;20017;-69
2022/07/26 06:21:50;;;;;;;16.90;4.10;;;;;;;19.96;100.00;101571.94;5248640;28;20021;-69
2022/07/26 06:24:22;;;;;;;19.40;5.05;;;;;;;19.80;100.00;101573.22;5265925;28;20051;-69
2022/07/26 06:26:54;;;;;;;23.27;4.47;;;;;;;19.68;100.00;101574.91;5257858;28;20020;-69
2022/07/26 06:29:24;;;;;;;14.40;4.95;;;;;;;19.66;100.00;101585.16;5266814;28;20024;-69
2022/07/26 06:31:55;;;;;;;19.63;5.10;;;;;;;19.64;100.00;101576.34;5255973;28;20082;-69
2022/07/26 06:34:26;;;;;;;19.02;4.28;;;;;;;19.64;100.00;101581.81;5268452;28;20031;-69
2022/07/26 06:36:57;;;;;;;19.63;4.78;;;;;;;20.05;100.00;101581.59;5254819;28;20032;-69
2022/07/26 06:39:27;;;;;;;14.30;3.67;;;;;;;21.21;100.00;101580.78;5248492;28;20031;-69
2022/07/26 06:41:58;;;;;;;13.77;3.75;;;;;;;22.03;100.00;101575.38;5247787;28;20028;-70
2022/07/26 06:44:28;;;;;;;17.77;4.30;;;;;;;22.93;100.00;101576.50;5257754;28;21041;-69
2022/07/26 06:46:59;;;;;;;12.75;3.75;;;;;;;23.92;100.00;101598.03;5252032;28;20020;-69
2022/07/26 06:49:29;;;;;;;10.32;3.00;;;;;;;24.91;100.00;101593.44;5248289;28;20024;-70
2022/07/26 06:52:00;;;;;;;13.43;3.22;;;;;;;24.09;100.00;101598.16;5248424;28;20024;-70
2022/07/26 06:54:30;;;;;;;12.77;2.92;;;;;;;23.62;100.00;101598.06;5247135;28;20028;-70
2022/07/26 06:57:01;;;;;;;10.18;2.80;;;;;;;22.68;100.00;101598.47;5246594;28;20028;-69
2022/07/26 06:59:31;;;;;;;12.75;3.22;;;;;;;22.42;100.00;101604.25;5261529;28;20137;-70
2022/07/26 07:02:03;;;;;;;16.70;3.97;;;;;;;21.93;100.00;101595.84;5247859;28;20382;-69
2022/07/26 07:04:34;;;;;;;15.45;3.00;;;;;;;21.82;100.00;101598.47;5233765;28;20025;-69
2022/07/26 07:07:05;;;;;;;12.23;3.10;;;;;;;21.74;100.00;101596.84;5257884;28;20386;-69
2022/07/26 07:09:36;;;;;;;17.42;3.65;;;;;;;22.06;100.00;101589.44;5251697;28;20024;-69
2022/07/26 07:12:07;;;;;;;11.68;3.42;;;;;;;22.74;100.00;101610.38;5259017;28;20028;-70
2022/07/26 07:14:38;;;;;;;14.65;3.78;;;;;;;22.78;100.00;101600.66;5249960;28;20036;-69
2022/07/26 07:17:09;;;;;;;13.55;3.42;;;;;;;22.35;100.00;101612.53;5247380;28;20025;-70
2022/07/26 07:19:39;;;;;;;11.85;3.47;;;;;;;22.36;100.00;101608.72;5247539;28;20024;-69
2022/07/26 07:22:10;;;;;;;12.45;3.08;;;;;;;22.15;100.00;101607.25;5246543;28;20386;-70
2022/07/26 07:24:41;;;;;;;14.48;3.08;;;;;;;21.71;100.00;101608.22;5233622;28;20073;-69
2022/07/26 07:27:12;;;;;;;15.30;3.40;;;;;;;21.38;100.00;101613.88;5261305;28;20017;-69
2022/07/26 07:29:42;;;;;;;14.60;3.22;;;;;;;21.25;100.00;101614.78;5255646;28;20077;-69
2022/07/26 07:32:13;;;;;;;15.23;4.07;;;;;;;21.10;100.00;101614.22;5265383;28;20373;-69
2022/07/26 07:34:44;;;;;;;11.35;2.85;;;;;;;21.06;100.00;101618.44;5257052;28;20385;-70
2022/07/26 07:37:16;;;;;;;8.93;2.83;;;;;;;20.91;100.00;101616.81;5268263;28;20116;-69
2022/07/26 07:39:47;;;;;;;9.25;2.90;;;;;;;20.72;100.00;101604.09;5268300;28;20563;-70
2022/07/26 07:42:18;;;;;;;15.63;3.03;;;;;;;20.72;100.00;101609.53;5254025;28;20031;-69
2022/07/26 07:44:49;;;;;;;14.70;3.85;;;;;;;20.56;100.00;101620.94;5254079;28;20021;-70
2022/07/26 07:47:21;;;;;;;9.82;2.95;;;;;;;20.65;100.00;101625.94;5267511;28;20016;-70
2022/07/26 07:49:51;;;;;;;9.38;2.63;;;;;;;20.68;100.00;101613.75;5254428;28;20486;-69
2022/07/26 07:52:21;;;;;;;13.88;2.58;;;;;;;20.69;100.00;101626.34;5268352;28;20028;-69
2022/07/26 07:54:52;;;;;;;11.45;2.67;;;;;;;20.79;100.00;101632.19;5250888;28;20043;-69
2022/07/26 07:57:23;;;;;;;12.75;4.22;;;;;;;20.66;100.00;101635.78;5249593;28;20063;-69
2022/07/26 07:59:53;;;;;;;9.20;2.60;;;;;;;20.62;100.00;101637.25;5263877;28;20076;-69
2022/07/26 08:02:24;;;;;;;7.85;2.72;;;;;;;20.69;100.00;101629.91;5246913;28;20032;-69
2022/07/26 08:04:54;;;;;;;12.35;3.10;;;;;;;20.50;100.00;101649.03;5238295;28;20039;-69
2022/07/26 08:07:25;;;;;;;8.43;2.90;;;;;;;20.51;100.00;101648.00;5254532;28;20433;-68
2022/07/26 08:09:56;;;;;;;10.73;2.60;;;;;;;20.44;100.00;101635.19;5246514;28;20083;-69
2022/07/26 08:12:26;;;;;;;11.27;2.28;;;;;;;20.56;100.00;101637.28;5260463;28;20435;-69
2022/07/26 08:14:57;;;;;;;11.10;2.72;;;;;;;20.54;100.00;101639.41;5253687;28;20040;-69
2022/07/26 08:17:27;;;;;;;17.83;2.85;;;;;;;20.51;100.00;101626.19;5265467;28;20386;-69
2022/07/26 08:19:57;;;;;;;7.22;2.47;;;;;;;;;;5246300;28;20056;-69
2022/07/26 08:22:28;;;;;;;9.90;2.80;;;;;;;20.86;100.00;101632.16;5246140;28;20115;-69
2022/07/26 08:24:59;;;;;;;12.70;2.33;;;;;;;20.85;100.00;101642.25;5245747;28;20473;-69
2022/07/26 08:27:29;;;;;;;10.77;2.63;;;;;;;20.94;100.00;101631.94;5246200;28;20492;-69
2022/07/26 08:30:00;;;;;;;13.35;2.45;;;;;;;21.18;100.00;101635.78;5258040;28;20501;-70
2022/07/26 08:32:31;;;;;;;10.77;2.50;;;;;;;21.41;100.00;101640.75;5247385;28;20060;-70
2022/07/26 08:35:01;;;;;;;10.35;2.40;;;;;;;21.55;100.00;101649.72;5258817;28;20053;-69
2022/07/26 08:37:32;;;;;;;12.25;3.67;;;;;;;21.42;100.00;101651.44;5246789;28;20047;-69
2022/07/26 08:40:04;;;;;;;8.35;2.47;;;;;;;21.33;100.00;101655.47;5259405;28;20028;-69
2022/07/26 08:42:34;;;;;;;9.68;3.10;;;;;;;21.29;100.00;101656.97;5254051;28;20073;-69
2022/07/26 08:45:05;;;;;;;13.00;3.15;;;;;;;21.60;100.00;101656.19;5266206;28;20016;-69
2022/07/26 08:47:36;;;;;;;10.43;2.90;;;;;;;21.61;100.00;101659.75;5267331;28;20051;-69
2022/07/26 08:50:07;;;;;;;10.73;2.70;;;;;;;21.73;100.00;101660.69;5252126;28;20481;-69
2022/07/26 08:52:39;;;;;;;11.85;3.42;;;;;;;21.84;100.00;101661.88;5255788;28;20036;-70
2022/07/26 08:55:15;;;;;;;11.00;3.65;;;;;;;22.13;100.00;101652.22;5244616;28;20478;-70
2022/07/26 08:57:46;;;;;;;9.45;3.92;;;;;;;22.13;100.00;101668.63;5245713;28;20098;-70
2022/07/26 09:00:36;;;;;;;12.85;5.00;;;;;;;22.15;100.00;101669.25;5245200;28;20028;-69
2022/07/26 09:03:06;;;;;;;12.43;5.78;;;;;;;22.28;100.00;101673.75;5241927;28;20087;-69
2022/07/26 09:05:38;;;;;;;12.43;4.80;;;;;;;22.28;100.00;101669.13;5235338;28;20078;-70
2022/07/26 09:08:26;;;;;;;15.05;5.60;;;;;;;22.31;100.00;101678.78;5245519;28;20047;-69
2022/07/26 09:10:58;;;;;;;17.70;6.40;;;;;;;22.30;100.00;101668.94;5259208;28;20028;-69
2022/07/26 09:13:49;;;;;;;12.77;5.72;;;;;;;22.38;100.00;101672.19;5254562;28;20084;-70
2022/07/26 09:16:19;;;;;;;13.27;6.63;;;;;;;22.56;100.00;101673.31;5265556;28;20023;-70
2022/07/26 09:18:50;;;;;;;12.07;6.47;;;;;;;22.57;100.00;101672.22;5252779;28;20020;-70
2022/07/26 09:21:39;;;;;;;12.05;5.82;;;;;;;22.73;100.00;101675.19;5252101;28;20062;-70
2022/07/26 09:24:10;;;;;;;12.35;5.15;;;;;;;22.99;100.00;101676.84;5251630;28;20024;-70
2022/07/26 09:26:54;;;;;;;12.10;4.78;;;;;;;23.31;100.00;101679.41;5255094;28;20027;-70
2022/07/26 09:29:25;;;;;;;8.90;3.97;;;;;;;23.19;100.00;101678.50;5251658;28;20386;-70
2022/07/26 09:32:32;;;;;;;13.43;3.92;;;;;;;23.66;100.00;101679.56;5252417;28;20028;-70
2022/07/26 09:35:16;;;;;;;9.77;3.42;;;;;;;24.89;100.00;101683.38;5265363;28;20055;-69
2022/07/26 09:37:47;;;;;;;9.07;2.70;;;;;;;25.71;100.00;101683.16;5232710;28;20470;-70
2022/07/26 09:40:18;;;;;;;5.45;2.30;;;;;;;25.69;100.00;101689.97;5247215;28;20488;-70
2022/07/26 09:43:00;;;;;;;9.73;2.20;;;;;;;25.21;100.00;101683.84;5256449;28;20020;-71
2022/07/26 09:45:34;;;;;;;10.18;2.20;;;;;;;25.29;100.00;101693.59;5257285;28;20040;-70
2022/07/26 09:48:04;;;;;;;5.35;1.90;;;;;;;24.91;100.00;101680.44;5258372;28;20016;-70
2022/07/26 09:50:35;;;;;;;8.57;2.22;;;;;;;25.13;100.00;101691.63;5258673;28;20029;-70
2022/07/26 09:53:09;;;;;;;7.78;2.30;;;;;;;24.85;100.00;101693.19;5259328;28;20385;-70
2022/07/26 09:55:58;;;;;;;7.38;2.38;;;;;;;25.18;100.00;101678.00;5256159;28;20032;-70
2022/07/26 09:58:29;;;;;;;5.13;2.03;;;;;;;24.69;100.00;101686.50;5244343;28;20031;-70
2022/07/26 10:01:00;;;;;;;4.28;2.20;;;;;;;24.75;100.00;101685.56;5245079;28;20390;-70
2022/07/26 10:03:32;;;;;;;10.05;2.80;;;;;;;24.74;100.00;101683.06;5237708;28;20024;-70
2022/07/26 10:06:03;;;;;;;6.97;2.33;;;;;;;24.37;100.00;101690.72;5237712;28;20028;-70
2022/07/26 10:08:33;;;;;;;9.48;2.97;;;;;;;24.07;100.00;101693.50;5244618;28;20025;-70
2022/07/26 10:11:07;;;;;;;7.85;3.33;;;;;;;24.10;100.00;101696.63;5258440;28;20031;-70
2022/07/26 10:13:38;;;;;;;10.23;2.92;;;;;;;24.03;100.00;101693.97;5255573;28;20032;-70
2022/07/26 10:16:29;;;;;;;9.68;2.72;;;;;;;23.60;100.00;101690.59;5260469;28;20082;-70
2022/07/26 10:19:03;;;;;;;7.60;2.47;;;;;;;23.53;100.00;101688.78;5259415;28;20064;-70
2022/07/26 10:21:34;;;;;;;8.15;3.03;;;;;;;23.91;100.00;101687.63;5256873;28;20047;-70
2022/07/26 10:24:24;;;;;;;9.35;3.00;;;;;;;24.85;100.00;101690.47;5250799;28;20060;-70
2022/07/26 10:26:54;;;;;;;6.35;2.95;;;;;;;25.22;100.00;101701.13;5265240;28;20016;-70
2022/07/26 10:29:27;;;;;;;7.13;3.28;;;;;;;24.98;100.00;101700.31;5251287;28;20476;-70
2022/07/26 10:32:17;;;;;;;8.75;3.47;;;;;;;24.61;100.00;101702.53;5265449;28;20032;-70
2022/07/26 10:34:48;;;;;;;4.57;2.10;;;;;;;24.11;100.00;101705.66;5254220;28;20025;-70
2022/07/26 10:37:26;;;;;;;7.55;2.55;;;;;;;23.74;100.00;101705.78;5257685;28;20043;-70
2022/07/26 10:40:16;;;;;;;5.75;2.25;;;;;;;23.36;100.00;101712.41;5244601;28;20040;-70
2022/07/26 10:42:46;;;;;;;12.18;2.75;;;;;;;22.70;100.00;101724.06;5233391;28;20033;-69
2022/07/26 10:45:20;;;;;;;10.32;2.80;;;;;;;21.80;100.00;101729.78;5243881;28;20378;-70
2022/07/26 10:48:11;;;;;;;7.85;2.90;;;;;;;21.16;100.00;101731.50;5255464;28;20024;-69
2022/07/26 10:50:43;;;;;;;3.90;2.30;;;;;;;20.80;100.00;101736.66;5231832;28;20031;-69
2022/07/26 10:53:33;;;;;;;6.32;2.70;;;;;;;20.58;100.00;101738.75;5244151;28;20115;-70
2022/07/26 10:56:03;;;;;;;9.07;2.92;;;;;;;20.10;100.00;101734.31;5247517;28;20475;-69
2022/07/26 10:58:42;;;;;;;4.65;2.10;;;;;;;19.84;100.00;101740.56;5259852;28;20078;-69
2022/07/26 11:01:13;;;;;;;4.93;2.22;;;;;;;19.39;100.00;101737.44;5248111;28;20443;-69
2022/07/26 11:03:43;;;;;;;5.75;2.10;;;;;;;19.24;100.00;101744.91;5239304;28;20108;-69
2022/07/26 11:06:17;;;;;;;5.90;2.05;;;;;;;19.29;100.00;101744.31;5256401;28;20100;-69
2022/07/26 11:08:47;;;;;;;4.82;2.10;;;;;;;19.41;100.00;101732.63;5247618;28;20051;-69
2022/07/26 11:11:35;;;;;;;5.40;2.10;;;;;;;19.91;100.00;101748.75;5265971;28;20024;-69
2022/07/26 11:14:07;;;;;;;6.82;2.00;;;;;;;20.17;100.00;101739.78;5268443;28;20421;-69
2022/07/26 11:16:39;;;;;;;3.28;1.70;;;;;;;20.56;100.00;101738.97;5268352;28;20482;-69
2022/07/26 11:19:23;;;;;;;4.88;1.70;;;;;;;20.96;100.00;101741.66;5268341;28;20020;-69
2022/07/26 11:21:57;;;;;;;4.07;2.10;;;;;;;21.39;100.00;101747.44;5259589;28;20135;-69
2022/07/26 11:24:28;;;;;;;4.87;1.90;;;;;;;22.35;100.00;101746.47;5267838;28;20032;-70
2022/07/26 11:27:14;;;;;;;4.13;2.17;;;;;;;23.02;100.00;101743.13;5268590;28;20062;-70
2022/07/26 11:29:44;;;;;;;4.15;1.80;;;;;;;23.40;100.00;101743.72;5236238;28;20064;-70
2022/07/26 11:32:17;;;;;;;3.58;1.48;;;;;;;23.63;100.00;101755.84;5247457;28;20027;-70
2022/07/26 11:35:00;;;;;;;4.07;1.60;;;;;;;23.78;100.00;101748.09;5246960;28;20029;-69
2022/07/26 11:37:31;;;;;;;6.25;1.60;;;;;;;23.66;100.00;101748.06;5253585;28;20039;-69